sensor_id;sensor_type;location;lat;lon;timestamp;pressure;altitude;pressure_sealevel;temperature;humidity
41234;BME280;26968;42.686;23.352;2022-12-29T00:01:16;96166.31;;;5.95;71.15
41234;BME280;26968;42.686;23.352;2022-12-29T00:03:44;96161.41;;;5.98;71.15
41234;BME280;26968;42.686;23.352;2022-12-29T00:06:10;96046.75;;;5.29;71.15
41234;BME280;26968;42.686;23.352;2022-12-29T00:08:35;96104.06;;;5.64;71.35
41234;BME280;26968;42.686;23.352;2022-12-29T00:11:12;96085.78;;;5.51;71.86
41234;BME280;26968;42.686;23.352;2022-12-29T00:13:38;96065.47;;;5.39;71.46
41234;BME280;26968;42.686;23.352;2022-12-29T00:16:23;96172.66;;;5.87;71.58
41234;BME280;26968;42.686;23.352;2022-12-29T00:18:49;96170.78;;;5.94;71.54
41234;BME280;26968;42.686;23.352;2022-12-29T00:21:17;96169.28;;;5.98;71.73
41234;BME280;26968;42.686;23.352;2022-12-29T00:24:01;96086.88;;;5.43;71.31
41234;BME280;26968;42.686;23.352;2022-12-29T00:26:48;96020.31;;;4.88;71.24
41234;BME280;26968;42.686;23.352;2022-12-29T00:29:33;96087.16;;;5.35;71.34
41234;BME280;26968;42.686;23.352;2022-12-29T00:32:17;96110.94;;;5.47;71.39
41234;BME280;26968;42.686;23.352;2022-12-29T00:35:01;96072.75;;;5.19;71.08
41234;BME280;26968;42.686;23.352;2022-12-29T00:37:42;96079.25;;;5.35;71.09
41234;BME280;26968;42.686;23.352;2022-12-29T00:40:26;96110.47;;;5.50;71.29
41234;BME280;26968;42.686;23.352;2022-12-29T00:43:10;96183.56;;;5.91;71.17
41234;BME280;26968;42.686;23.352;2022-12-29T00:45:54;96172.84;;;5.86;71.02
41234;BME280;26968;42.686;23.352;2022-12-29T00:48:19;96185.66;;;5.82;71.43
41234;BME280;26968;42.686;23.352;2022-12-29T00:51:06;96105.81;;;5.33;71.21
41234;BME280;26968;42.686;23.352;2022-12-29T00:53:32;96111.34;;;5.25;71.41
41234;BME280;26968;42.686;23.352;2022-12-29T00:55:57;96164.66;;;5.75;70.58
41234;BME280;26968;42.686;23.352;2022-12-29T00:58:23;96094.63;;;5.38;70.57
41234;BME280;26968;42.686;23.352;2022-12-29T01:00:48;96186.41;;;5.89;70.96
41234;BME280;26968;42.686;23.352;2022-12-29T01:03:14;96187.00;;;5.91;70.84
41234;BME280;26968;42.686;23.352;2022-12-29T01:05:39;96141.72;;;5.64;70.58
41234;BME280;26968;42.686;23.352;2022-12-29T01:08:04;96186.78;;;5.93;70.84
41234;BME280;26968;42.686;23.352;2022-12-29T01:10:30;96049.81;;;5.08;70.58
41234;BME280;26968;42.686;23.352;2022-12-29T01:12:55;95888.00;;;4.14;70.48
41234;BME280;26968;42.686;23.352;2022-12-29T01:15:21;96062.22;;;5.19;70.32
41234;BME280;26968;42.686;23.352;2022-12-29T01:17:46;96020.78;;;4.96;70.50
41234;BME280;26968;42.686;23.352;2022-12-29T01:20:12;96086.34;;;5.34;70.70
41234;BME280;26968;42.686;23.352;2022-12-29T01:22:38;96170.22;;;5.86;70.45
41234;BME280;26968;42.686;23.352;2022-12-29T01:25:04;96028.13;;;4.94;71.08
41234;BME280;26968;42.686;23.352;2022-12-29T01:27:30;96178.13;;;5.86;71.05
41234;BME280;26968;42.686;23.352;2022-12-29T01:29:56;95940.09;;;4.42;70.63
41234;BME280;26968;42.686;23.352;2022-12-29T01:32:21;96094.41;;;5.39;70.83
41234;BME280;26968;42.686;23.352;2022-12-29T01:34:47;96128.13;;;5.49;70.79
41234;BME280;26968;42.686;23.352;2022-12-29T01:37:12;96084.97;;;5.32;70.99
41234;BME280;26968;42.686;23.352;2022-12-29T01:39:37;96009.41;;;4.84;70.28
41234;BME280;26968;42.686;23.352;2022-12-29T01:42:03;96155.38;;;5.73;70.93
41234;BME280;26968;42.686;23.352;2022-12-29T01:49:55;96126.84;;;5.52;71.15
41234;BME280;26968;42.686;23.352;2022-12-29T01:52:22;96073.84;;;5.12;71.21
41234;BME280;26968;42.686;23.352;2022-12-29T01:54:51;96080.22;;;5.22;71.27
41234;BME280;26968;42.686;23.352;2022-12-29T01:57:21;96142.22;;;5.55;71.53
41234;BME280;26968;42.686;23.352;2022-12-29T01:59:54;96062.56;;;5.04;71.40
41234;BME280;26968;42.686;23.352;2022-12-29T02:02:22;96017.66;;;4.88;71.16
41234;BME280;26968;42.686;23.352;2022-12-29T02:04:48;96123.19;;;5.53;71.02
41234;BME280;26968;42.686;23.352;2022-12-29T02:07:18;95992.09;;;4.77;71.19
41234;BME280;26968;42.686;23.352;2022-12-29T02:09:48;96131.97;;;5.65;71.52
41234;BME280;26968;42.686;23.352;2022-12-29T02:12:16;96017.28;;;4.84;71.35
41234;BME280;26968;42.686;23.352;2022-12-29T02:14:43;96087.59;;;5.32;71.25
41234;BME280;26968;42.686;23.352;2022-12-29T02:26:03;96129.34;;;5.65;71.53
41234;BME280;26968;42.686;23.352;2022-12-29T02:34:26;95908.31;;;4.25;71.06
41234;BME280;26968;42.686;23.352;2022-12-29T02:37:11;96042.53;;;5.10;70.85
41234;BME280;26968;42.686;23.352;2022-12-29T02:40:01;96130.72;;;5.67;71.03
41234;BME280;26968;42.686;23.352;2022-12-29T02:45:13;96099.38;;;5.48;70.19
41234;BME280;26968;42.686;23.352;2022-12-29T02:50:50;96133.22;;;5.62;70.51
41234;BME280;26968;42.686;23.352;2022-12-29T02:53:18;96026.22;;;5.01;70.27
41234;BME280;26968;42.686;23.352;2022-12-29T02:56:05;96039.09;;;5.10;70.55
41234;BME280;26968;42.686;23.352;2022-12-29T02:58:31;96034.78;;;5.15;70.00
41234;BME280;26968;42.686;23.352;2022-12-29T03:06:39;96029.94;;;5.12;70.28
41234;BME280;26968;42.686;23.352;2022-12-29T03:12:07;96115.41;;;5.64;70.47
41234;BME280;26968;42.686;23.352;2022-12-29T03:14:58;96023.06;;;5.11;70.47
41234;BME280;26968;42.686;23.352;2022-12-29T03:18:13;96114.72;;;5.69;69.81
41234;BME280;26968;42.686;23.352;2022-12-29T03:20:53;95950.59;;;4.60;70.54
41234;BME280;26968;42.686;23.352;2022-12-29T03:23:22;96038.72;;;5.24;70.30
41234;BME280;26968;42.686;23.352;2022-12-29T03:25:51;96038.34;;;5.21;70.06
41234;BME280;26968;42.686;23.352;2022-12-29T03:28:22;96010.44;;;5.01;69.95
41234;BME280;26968;42.686;23.352;2022-12-29T03:30:49;95912.22;;;4.41;69.72
41234;BME280;26968;42.686;23.352;2022-12-29T03:33:23;96014.91;;;5.01;70.15
41234;BME280;26968;42.686;23.352;2022-12-29T03:35:51;96009.53;;;4.89;70.11
41234;BME280;26968;42.686;23.352;2022-12-29T03:40:52;96112.09;;;5.32;70.25
41234;BME280;26968;42.686;23.352;2022-12-29T03:43:19;95955.13;;;4.28;70.17
41234;BME280;26968;42.686;23.352;2022-12-29T03:45:45;96017.63;;;4.70;69.97
41234;BME280;26968;42.686;23.352;2022-12-29T03:48:10;96061.53;;;4.87;70.36
41234;BME280;26968;42.686;23.352;2022-12-29T03:50:36;96066.63;;;4.82;70.41
41234;BME280;26968;42.686;23.352;2022-12-29T03:53:01;96066.84;;;4.81;70.05
41234;BME280;26968;42.686;23.352;2022-12-29T03:55:27;96009.16;;;4.43;69.98
41234;BME280;26968;42.686;23.352;2022-12-29T03:57:52;96030.13;;;4.49;70.07
41234;BME280;26968;42.686;23.352;2022-12-29T04:00:17;96031.41;;;4.40;70.23
41234;BME280;26968;42.686;23.352;2022-12-29T04:02:43;96123.00;;;4.86;70.54
41234;BME280;26968;42.686;23.352;2022-12-29T04:05:08;96139.91;;;4.97;70.42
41234;BME280;26968;42.686;23.352;2022-12-29T04:07:34;96012.03;;;4.10;71.02
41234;BME280;26968;42.686;23.352;2022-12-29T04:09:59;96124.03;;;4.85;70.65
41234;BME280;26968;42.686;23.352;2022-12-29T04:12:24;95997.41;;;3.96;71.20
41234;BME280;26968;42.686;23.352;2022-12-29T04:14:50;96090.72;;;4.54;71.03
41234;BME280;26968;42.686;23.352;2022-12-29T04:17:15;96141.03;;;4.83;71.30
41234;BME280;26968;42.686;23.352;2022-12-29T04:19:41;96117.53;;;4.63;71.51
41234;BME280;26968;42.686;23.352;2022-12-29T04:22:06;96027.06;;;3.96;71.55
41234;BME280;26968;42.686;23.352;2022-12-29T04:24:32;96037.53;;;4.03;71.83
41234;BME280;26968;42.686;23.352;2022-12-29T04:26:57;96021.44;;;3.93;71.85
41234;BME280;26968;42.686;23.352;2022-12-29T04:29:22;96051.63;;;4.08;71.47
41234;BME280;26968;42.686;23.352;2022-12-29T04:31:48;96018.28;;;3.77;72.11
41234;BME280;26968;42.686;23.352;2022-12-29T04:34:13;95976.28;;;3.46;72.18
41234;BME280;26968;42.686;23.352;2022-12-29T04:36:39;96117.91;;;4.35;72.41
41234;BME280;26968;42.686;23.352;2022-12-29T04:39:07;96114.34;;;4.23;72.51
41234;BME280;26968;42.686;23.352;2022-12-29T04:41:32;95998.66;;;3.48;72.39
41234;BME280;26968;42.686;23.352;2022-12-29T04:43:58;96025.84;;;3.61;72.34
41234;BME280;26968;42.686;23.352;2022-12-29T04:46:23;96061.44;;;3.88;72.59
41234;BME280;26968;42.686;23.352;2022-12-29T04:48:49;96045.56;;;3.70;72.37
41234;BME280;26968;42.686;23.352;2022-12-29T04:51:14;96076.81;;;3.78;72.90
41234;BME280;26968;42.686;23.352;2022-12-29T04:53:40;96047.78;;;3.66;72.80
41234;BME280;26968;42.686;23.352;2022-12-29T04:56:05;96083.47;;;3.80;72.72
41234;BME280;26968;42.686;23.352;2022-12-29T04:58:31;96052.66;;;3.63;73.01
41234;BME280;26968;42.686;23.352;2022-12-29T05:00:56;96106.63;;;3.97;73.13
41234;BME280;26968;42.686;23.352;2022-12-29T05:03:22;96164.00;;;4.31;73.31
41234;BME280;26968;42.686;23.352;2022-12-29T05:05:47;96170.41;;;4.35;72.78
41234;BME280;26968;42.686;23.352;2022-12-29T05:08:13;96063.72;;;3.71;73.46
41234;BME280;26968;42.686;23.352;2022-12-29T05:10:38;96106.78;;;4.02;73.09
41234;BME280;26968;42.686;23.352;2022-12-29T05:13:04;95992.88;;;3.33;73.16
41234;BME280;26968;42.686;23.352;2022-12-29T05:15:29;96164.75;;;4.38;73.65
41234;BME280;26968;42.686;23.352;2022-12-29T05:18:13;96169.16;;;4.44;73.82
41234;BME280;26968;42.686;23.352;2022-12-29T05:20:38;96162.50;;;4.48;73.12
41234;BME280;26968;42.686;23.352;2022-12-29T05:23:04;96115.84;;;4.06;73.48
41234;BME280;26968;42.686;23.352;2022-12-29T05:25:29;96077.97;;;3.95;73.91
41234;BME280;26968;42.686;23.352;2022-12-29T05:27:54;96058.59;;;3.89;73.34
41234;BME280;26968;42.686;23.352;2022-12-29T05:30:20;96128.63;;;4.34;73.54
41234;BME280;26968;42.686;23.352;2022-12-29T05:32:45;96166.00;;;4.67;73.30
41234;BME280;26968;42.686;23.352;2022-12-29T05:35:11;96107.03;;;4.32;73.20
41234;BME280;26968;42.686;23.352;2022-12-29T05:37:36;96127.34;;;4.43;73.05
41234;BME280;26968;42.686;23.352;2022-12-29T05:40:02;96112.22;;;4.38;73.29
41234;BME280;26968;42.686;23.352;2022-12-29T05:42:27;96054.13;;;3.97;72.98
41234;BME280;26968;42.686;23.352;2022-12-29T05:44:52;96088.28;;;4.21;72.96
41234;BME280;26968;42.686;23.352;2022-12-29T05:47:19;96177.25;;;4.74;72.79
41234;BME280;26968;42.686;23.352;2022-12-29T05:49:44;96162.94;;;4.70;73.27
41234;BME280;26968;42.686;23.352;2022-12-29T05:52:41;96172.59;;;4.76;73.50
41234;BME280;26968;42.686;23.352;2022-12-29T05:55:07;96076.44;;;4.12;72.92
41234;BME280;26968;42.686;23.352;2022-12-29T05:57:32;96009.56;;;3.83;72.47
41234;BME280;26968;42.686;23.352;2022-12-29T05:59:59;96073.34;;;4.22;72.30
41234;BME280;26968;42.686;23.352;2022-12-29T06:02:24;96060.69;;;4.12;72.45
41234;BME280;26968;42.686;23.352;2022-12-29T06:04:50;96119.66;;;4.48;72.24
41234;BME280;26968;42.686;23.352;2022-12-29T06:07:15;96126.47;;;4.55;72.17
41234;BME280;26968;42.686;23.352;2022-12-29T06:09:41;96100.47;;;4.47;72.31
41234;BME280;26968;42.686;23.352;2022-12-29T06:12:06;96060.47;;;4.14;72.75
41234;BME280;26968;42.686;23.352;2022-12-29T06:14:32;96082.97;;;4.35;72.54
41234;BME280;26968;42.686;23.352;2022-12-29T06:16:57;96125.81;;;4.60;72.33
41234;BME280;26968;42.686;23.352;2022-12-29T06:19:22;96066.03;;;4.31;72.74
41234;BME280;26968;42.686;23.352;2022-12-29T06:21:48;96059.81;;;4.25;72.36
41234;BME280;26968;42.686;23.352;2022-12-29T06:24:13;96071.88;;;4.33;72.63
41234;BME280;26968;42.686;23.352;2022-12-29T06:26:39;96027.78;;;4.10;72.38
41234;BME280;26968;42.686;23.352;2022-12-29T06:29:06;96050.09;;;4.25;72.80
41234;BME280;26968;42.686;23.352;2022-12-29T06:31:32;96061.31;;;4.39;72.26
41234;BME280;26968;42.686;23.352;2022-12-29T06:33:57;96037.56;;;4.27;72.22
41234;BME280;26968;42.686;23.352;2022-12-29T06:36:23;96032.16;;;4.22;72.48
41234;BME280;26968;42.686;23.352;2022-12-29T06:38:48;96071.94;;;4.51;72.30
41234;BME280;26968;42.686;23.352;2022-12-29T06:41:14;96046.78;;;4.37;72.30
41234;BME280;26968;42.686;23.352;2022-12-29T06:43:39;96079.94;;;4.62;71.94
41234;BME280;26968;42.686;23.352;2022-12-29T06:46:05;96074.34;;;4.52;72.19
41234;BME280;26968;42.686;23.352;2022-12-29T06:48:30;96099.69;;;4.72;72.03
41234;BME280;26968;42.686;23.352;2022-12-29T06:50:56;96107.44;;;4.60;72.15
41234;BME280;26968;42.686;23.352;2022-12-29T06:53:21;96210.53;;;5.18;72.04
41234;BME280;26968;42.686;23.352;2022-12-29T06:55:47;96081.13;;;4.42;72.07
41234;BME280;26968;42.686;23.352;2022-12-29T06:58:12;96151.06;;;4.92;71.95
41234;BME280;26968;42.686;23.352;2022-12-29T07:00:38;96029.06;;;4.32;71.64
41234;BME280;26968;42.686;23.352;2022-12-29T07:03:03;96092.38;;;4.74;71.15
41234;BME280;26968;42.686;23.352;2022-12-29T07:05:29;96124.38;;;4.89;71.41
41234;BME280;26968;42.686;23.352;2022-12-29T07:07:56;96213.75;;;5.45;71.26
41234;BME280;26968;42.686;23.352;2022-12-29T07:10:22;96178.06;;;5.31;70.87
41234;BME280;26968;42.686;23.352;2022-12-29T07:12:48;96077.78;;;4.78;70.64
41234;BME280;26968;42.686;23.352;2022-12-29T07:15:13;96091.34;;;4.99;70.51
41234;BME280;26968;42.686;23.352;2022-12-29T07:17:39;96074.44;;;4.89;70.22
41234;BME280;26968;42.686;23.352;2022-12-29T07:20:05;96132.81;;;5.22;70.20
41234;BME280;26968;42.686;23.352;2022-12-29T07:22:31;96045.06;;;4.74;70.04
41234;BME280;26968;42.686;23.352;2022-12-29T07:24:57;96198.28;;;5.55;70.32
41234;BME280;26968;42.686;23.352;2022-12-29T07:27:22;96101.38;;;5.09;70.52
41234;BME280;26968;42.686;23.352;2022-12-29T07:29:47;96179.28;;;5.71;70.51
41234;BME280;26968;42.686;23.352;2022-12-29T07:32:13;96055.72;;;5.03;69.38
41234;BME280;26968;42.686;23.352;2022-12-29T07:34:38;96176.31;;;5.86;69.07
41234;BME280;26968;42.686;23.352;2022-12-29T07:37:05;96187.59;;;5.93;69.53
41234;BME280;26968;42.686;23.352;2022-12-29T07:39:30;96141.72;;;5.64;69.11
41234;BME280;26968;42.686;23.352;2022-12-29T07:41:56;96140.97;;;5.75;69.28
41234;BME280;26968;42.686;23.352;2022-12-29T07:44:21;96166.59;;;6.05;68.71
41234;BME280;26968;42.686;23.352;2022-12-29T07:46:46;96108.06;;;5.66;68.44
41234;BME280;26968;42.686;23.352;2022-12-29T07:49:12;96164.53;;;6.07;68.51
41234;BME280;26968;42.686;23.352;2022-12-29T07:51:37;96217.78;;;6.45;68.06
41234;BME280;26968;42.686;23.352;2022-12-29T07:54:03;96087.53;;;5.38;68.49
41234;BME280;26968;42.686;23.352;2022-12-29T07:56:28;96133.88;;;5.58;69.34
41234;BME280;26968;42.686;23.352;2022-12-29T07:58:54;96213.69;;;6.31;68.69
41234;BME280;26968;42.686;23.352;2022-12-29T08:01:19;96172.28;;;6.20;67.89
41234;BME280;26968;42.686;23.352;2022-12-29T08:03:45;96215.16;;;6.57;67.84
41234;BME280;26968;42.686;23.352;2022-12-29T08:06:11;96167.63;;;6.34;67.74
41234;BME280;26968;42.686;23.352;2022-12-29T08:08:36;96122.63;;;6.05;67.69
41234;BME280;26968;42.686;23.352;2022-12-29T08:11:03;96201.53;;;6.48;67.80
41234;BME280;26968;42.686;23.352;2022-12-29T08:13:28;96178.25;;;6.45;67.63
41234;BME280;26968;42.686;23.352;2022-12-29T08:15:54;96194.16;;;6.69;66.96
41234;BME280;26968;42.686;23.352;2022-12-29T08:18:19;96056.09;;;5.62;67.55
41234;BME280;26968;42.686;23.352;2022-12-29T08:20:45;96147.75;;;6.38;67.09
41234;BME280;26968;42.686;23.352;2022-12-29T08:23:10;96065.94;;;5.85;66.93
41234;BME280;26968;42.686;23.352;2022-12-29T08:25:35;96117.44;;;6.17;66.85
41234;BME280;26968;42.686;23.352;2022-12-29T08:28:01;96100.31;;;6.08;67.50
41234;BME280;26968;42.686;23.352;2022-12-29T08:30:26;96141.22;;;6.40;67.50
41234;BME280;26968;42.686;23.352;2022-12-29T08:32:51;96092.53;;;6.13;67.21
41234;BME280;26968;42.686;23.352;2022-12-29T08:35:17;96136.28;;;6.32;67.09
41234;BME280;26968;42.686;23.352;2022-12-29T08:37:42;96110.53;;;6.16;66.81
41234;BME280;26968;42.686;23.352;2022-12-29T08:40:08;96126.06;;;6.36;66.52
41234;BME280;26968;42.686;23.352;2022-12-29T08:42:34;96211.78;;;6.98;66.20
41234;BME280;26968;42.686;23.352;2022-12-29T08:45:00;96196.53;;;7.00;65.98
41234;BME280;26968;42.686;23.352;2022-12-29T08:47:25;96146.00;;;6.73;66.03
41234;BME280;26968;42.686;23.352;2022-12-29T08:49:51;96200.47;;;7.09;65.96
41234;BME280;26968;42.686;23.352;2022-12-29T08:52:17;96119.56;;;6.38;66.52
41234;BME280;26968;42.686;23.352;2022-12-29T08:54:43;96116.94;;;6.38;66.28
41234;BME280;26968;42.686;23.352;2022-12-29T08:57:08;96077.03;;;6.05;67.46
41234;BME280;26968;42.686;23.352;2022-12-29T08:59:34;96191.72;;;6.67;67.73
41234;BME280;26968;42.686;23.352;2022-12-29T09:01:59;96055.41;;;6.03;66.95
41234;BME280;26968;42.686;23.352;2022-12-29T09:04:25;96117.97;;;6.49;67.05
41234;BME280;26968;42.686;23.352;2022-12-29T09:06:52;96063.66;;;6.06;67.41
41234;BME280;26968;42.686;23.352;2022-12-29T09:09:17;96188.09;;;6.80;67.40
41234;BME280;26968;42.686;23.352;2022-12-29T09:11:43;96113.91;;;6.23;67.84
41234;BME280;26968;42.686;23.352;2022-12-29T09:14:09;96178.25;;;6.87;67.82
41234;BME280;26968;42.686;23.352;2022-12-29T09:16:35;96079.81;;;6.40;67.11
41234;BME280;26968;42.686;23.352;2022-12-29T09:19:01;96078.84;;;6.23;67.93
41234;BME280;26968;42.686;23.352;2022-12-29T09:21:27;96055.72;;;5.95;68.57
41234;BME280;26968;42.686;23.352;2022-12-29T09:23:52;96107.94;;;6.28;68.54
41234;BME280;26968;42.686;23.352;2022-12-29T09:26:18;96083.22;;;6.29;68.09
41234;BME280;26968;42.686;23.352;2022-12-29T09:28:43;96180.75;;;6.70;68.93
41234;BME280;26968;42.686;23.352;2022-12-29T09:31:09;96023.22;;;5.71;68.90
41234;BME280;26968;42.686;23.352;2022-12-29T09:33:35;96176.88;;;6.84;68.96
41234;BME280;26968;42.686;23.352;2022-12-29T09:36:01;96078.44;;;6.37;68.95
41234;BME280;26968;42.686;23.352;2022-12-29T09:38:27;96012.34;;;5.97;68.25
41234;BME280;26968;42.686;23.352;2022-12-29T09:41:20;96099.69;;;6.66;68.83
41234;BME280;26968;42.686;23.352;2022-12-29T09:44:13;96166.88;;;7.16;68.14
41234;BME280;26968;42.686;23.352;2022-12-29T09:46:44;96161.25;;;7.24;68.17
41234;BME280;26968;42.686;23.352;2022-12-29T09:49:43;96040.19;;;6.58;67.97
41234;BME280;26968;42.686;23.352;2022-12-29T09:52:19;96062.69;;;6.72;67.66
41234;BME280;26968;42.686;23.352;2022-12-29T09:54:49;96147.81;;;7.49;67.66
41234;BME280;26968;42.686;23.352;2022-12-29T10:00:21;96140.59;;;7.33;67.61
41234;BME280;26968;42.686;23.352;2022-12-29T10:02:54;96129.22;;;7.32;67.55
41234;BME280;26968;42.686;23.352;2022-12-29T10:10:34;96136.00;;;7.52;67.29
41234;BME280;26968;42.686;23.352;2022-12-29T10:13:15;96129.00;;;7.57;67.14
41234;BME280;26968;42.686;23.352;2022-12-29T10:16:11;96136.00;;;7.52;67.69
41234;BME280;26968;42.686;23.352;2022-12-29T10:18:43;96121.84;;;7.81;67.21
41234;BME280;26968;42.686;23.352;2022-12-29T10:24:16;96092.59;;;9.18;63.97
41234;BME280;26968;42.686;23.352;2022-12-29T10:26:45;96008.72;;;9.40;61.29
41234;BME280;26968;42.686;23.352;2022-12-29T10:29:26;96116.56;;;10.75;59.30
41234;BME280;26968;42.686;23.352;2022-12-29T10:32:00;96112.38;;;11.16;57.60
41234;BME280;26968;42.686;23.352;2022-12-29T10:34:30;96085.22;;;11.46;56.18
41234;BME280;26968;42.686;23.352;2022-12-29T10:37:09;96012.59;;;11.26;54.41
41234;BME280;26968;42.686;23.352;2022-12-29T10:39:43;95880.94;;;10.72;54.03
41234;BME280;26968;42.686;23.352;2022-12-29T10:42:37;96103.19;;;12.33;53.36
41234;BME280;26968;42.686;23.352;2022-12-29T10:45:10;96035.88;;;12.18;52.50
41234;BME280;26968;42.686;23.352;2022-12-29T10:47:43;96076.63;;;12.49;52.44
41234;BME280;26968;42.686;23.352;2022-12-29T10:50:12;96010.28;;;11.96;52.18
41234;BME280;26968;42.686;23.352;2022-12-29T10:52:38;96040.44;;;12.37;51.86
41234;BME280;26968;42.686;23.352;2022-12-29T10:55:11;96097.72;;;12.81;51.18
41234;BME280;26968;42.686;23.352;2022-12-29T10:57:43;96036.19;;;12.67;51.16
41234;BME280;26968;42.686;23.352;2022-12-29T11:00:22;96076.69;;;12.99;50.87
41234;BME280;26968;42.686;23.352;2022-12-29T11:08:55;96071.38;;;13.04;50.83
41234;BME280;26968;42.686;23.352;2022-12-29T11:11:27;96071.88;;;12.91;51.14
41234;BME280;26968;42.686;23.352;2022-12-29T11:16:39;96026.59;;;12.25;51.50
41234;BME280;26968;42.686;23.352;2022-12-29T11:19:20;96025.19;;;12.03;52.27
41234;BME280;26968;42.686;23.352;2022-12-29T11:21:46;95971.13;;;11.72;52.54
41234;BME280;26968;42.686;23.352;2022-12-29T11:24:28;96025.66;;;11.79;53.46
41234;BME280;26968;42.686;23.352;2022-12-29T11:27:08;96060.50;;;11.93;53.08
41234;BME280;26968;42.686;23.352;2022-12-29T11:29:39;96060.56;;;12.08;53.06
41234;BME280;26968;42.686;23.352;2022-12-29T11:32:31;96038.69;;;11.81;53.74
41234;BME280;26968;42.686;23.352;2022-12-29T11:34:57;96050.97;;;12.02;53.45
41234;BME280;26968;42.686;23.352;2022-12-29T11:39:55;96051.53;;;12.09;53.10
41234;BME280;26968;42.686;23.352;2022-12-29T11:42:28;95942.56;;;11.42;53.57
41234;BME280;26968;42.686;23.352;2022-12-29T11:45:04;95945.94;;;11.22;53.47
41234;BME280;26968;42.686;23.352;2022-12-29T11:47:32;95964.47;;;11.12;54.28
41234;BME280;26968;42.686;23.352;2022-12-29T11:50:07;96032.16;;;11.61;54.06
41234;BME280;26968;42.686;23.352;2022-12-29T11:52:36;96002.69;;;11.68;54.01
41234;BME280;26968;42.686;23.352;2022-12-29T11:55:16;96025.41;;;11.91;53.65
41234;BME280;26968;42.686;23.352;2022-12-29T11:57:43;95995.78;;;11.62;53.82
41234;BME280;26968;42.686;23.352;2022-12-29T12:00:22;96044.00;;;11.91;53.98
41234;BME280;26968;42.686;23.352;2022-12-29T12:03:09;96038.53;;;11.55;55.29
41234;BME280;26968;42.686;23.352;2022-12-29T12:05:48;95949.59;;;11.11;55.37
41234;BME280;26968;42.686;23.352;2022-12-29T12:08:29;95971.41;;;11.13;55.54
41234;BME280;26968;42.686;23.352;2022-12-29T12:16:40;95952.69;;;10.93;56.13
41234;BME280;26968;42.686;23.352;2022-12-29T12:22:14;95980.25;;;10.87;57.39
41234;BME280;26968;42.686;23.352;2022-12-29T12:24:48;96020.84;;;11.29;56.78
41234;BME280;26968;42.686;23.352;2022-12-29T12:27:20;96018.22;;;11.34;56.79
41234;BME280;26968;42.686;23.352;2022-12-29T12:32:22;96015.91;;;11.48;56.65
41234;BME280;26968;42.686;23.352;2022-12-29T12:34:48;95954.50;;;11.39;56.30
41234;BME280;26968;42.686;23.352;2022-12-29T12:45:44;96001.31;;;12.13;54.96
41234;BME280;26968;42.686;23.352;2022-12-29T12:59:23;95990.63;;;12.08;54.11
41234;BME280;26968;42.686;23.352;2022-12-29T13:05:24;96015.41;;;12.23;54.21
41234;BME280;26968;42.686;23.352;2022-12-29T13:07:55;96004.00;;;12.28;53.93
41234;BME280;26968;42.686;23.352;2022-12-29T13:18:34;96004.97;;;11.96;55.39
41234;BME280;26968;42.686;23.352;2022-12-29T13:24:14;95871.88;;;11.20;55.07
41234;BME280;26968;42.686;23.352;2022-12-29T13:26:48;95976.78;;;12.01;54.89
41234;BME280;26968;42.686;23.352;2022-12-29T13:29:26;96004.75;;;12.18;54.59
41234;BME280;26968;42.686;23.352;2022-12-29T13:32:15;96011.13;;;12.17;55.49
41234;BME280;26968;42.686;23.352;2022-12-29T13:37:27;95955.44;;;11.70;55.51
41234;BME280;26968;42.686;23.352;2022-12-29T13:40:00;95971.44;;;11.85;54.91
41234;BME280;26968;42.686;23.352;2022-12-29T13:42:29;96008.94;;;11.99;55.59
41234;BME280;26968;42.686;23.352;2022-12-29T13:44:59;95998.03;;;11.90;55.71
41234;BME280;26968;42.686;23.352;2022-12-29T13:47:30;96001.66;;;11.69;56.56
41234;BME280;26968;42.686;23.352;2022-12-29T13:50:02;96012.59;;;11.26;57.17
41234;BME280;26968;42.686;23.352;2022-12-29T13:52:36;96004.97;;;11.34;56.94
41234;BME280;26968;42.686;23.352;2022-12-29T14:00:23;96008.16;;;10.94;58.58
41234;BME280;26968;42.686;23.352;2022-12-29T14:03:20;95980.81;;;10.57;59.17
41234;BME280;26968;42.686;23.352;2022-12-29T14:06:10;95916.00;;;10.16;59.37
41234;BME280;26968;42.686;23.352;2022-12-29T14:08:37;96010.03;;;10.62;60.04
41234;BME280;26968;42.686;23.352;2022-12-29T14:11:09;95935.78;;;10.03;60.12
41234;BME280;26968;42.686;23.352;2022-12-29T14:13:39;95811.38;;;9.27;59.65
41234;BME280;26968;42.686;23.352;2022-12-29T14:16:06;95929.25;;;9.84;60.48
41234;BME280;26968;42.686;23.352;2022-12-29T14:18:34;96014.84;;;10.38;60.60
41234;BME280;26968;42.686;23.352;2022-12-29T14:23:43;96026.91;;;10.24;60.90
41234;BME280;26968;42.686;23.352;2022-12-29T14:26:15;96023.44;;;9.96;61.73
41234;BME280;26968;42.686;23.352;2022-12-29T14:28:43;96029.31;;;9.98;61.92
41234;BME280;26968;42.686;23.352;2022-12-29T14:36:55;96019.09;;;9.63;62.69
41234;BME280;26968;42.686;23.352;2022-12-29T14:39:41;96039.88;;;9.77;62.27
41234;BME280;26968;42.686;23.352;2022-12-29T14:44:52;95997.34;;;9.40;62.58
41234;BME280;26968;42.686;23.352;2022-12-29T14:47:32;96034.72;;;9.65;62.74
41234;BME280;26968;42.686;23.352;2022-12-29T14:50:15;96042.88;;;9.58;63.02
41234;BME280;26968;42.686;23.352;2022-12-29T14:52:53;95990.19;;;9.18;63.27
41234;BME280;26968;42.686;23.352;2022-12-29T14:55:47;96038.97;;;9.44;63.67
41234;BME280;26968;42.686;23.352;2022-12-29T14:58:37;96048.13;;;9.37;63.54
41234;BME280;26968;42.686;23.352;2022-12-29T15:01:40;96039.44;;;9.19;64.77
41234;BME280;26968;42.686;23.352;2022-12-29T15:04:17;96012.59;;;8.94;65.13
41234;BME280;26968;42.686;23.352;2022-12-29T15:06:44;96007.75;;;8.69;65.85
41234;BME280;26968;42.686;23.352;2022-12-29T15:09:31;96037.03;;;9.01;65.42
41234;BME280;26968;42.686;23.352;2022-12-29T15:12:07;96038.34;;;8.99;64.93
41234;BME280;26968;42.686;23.352;2022-12-29T15:14:49;95961.81;;;8.42;65.32
41234;BME280;26968;42.686;23.352;2022-12-29T15:17:28;96036.41;;;8.94;65.30